createdAt,value
2023-01-22T00:02:21.411Z,101166.20
2023-01-22T00:13:28.257Z,101151.45
2023-01-22T00:17:02.204Z,101143.38
2023-01-22T00:20:41.767Z,101146.30
2023-01-22T00:24:14.219Z,101144.58
2023-01-22T00:27:46.276Z,101141.06
2023-01-22T00:31:19.300Z,101138.19
2023-01-22T00:34:52.191Z,101144.09
2023-01-22T00:38:27.538Z,101140.52
2023-01-22T00:42:02.230Z,101129.71
2023-01-22T00:45:37.359Z,101123.52
2023-01-22T00:49:18.266Z,101116.64
2023-01-22T00:52:56.280Z,101112.51
2023-01-22T00:56:33.365Z,101103.77
2023-01-22T01:00:10.211Z,101079.59
2023-01-22T01:03:49.230Z,101074.34
2023-01-22T01:07:36.328Z,101071.45
2023-01-22T01:11:11.117Z,101063.92
2023-01-22T01:14:56.215Z,101056.82
2023-01-22T01:18:37.364Z,101052.55
2023-01-22T01:22:12.603Z,101047.20
2023-01-22T01:29:36.228Z,101041.55
2023-01-22T01:33:08.217Z,101053.44
2023-01-22T01:36:48.715Z,101045.01
2023-01-22T01:40:06.386Z,101040.89
2023-01-22T01:43:53.268Z,101041.58
2023-01-22T01:47:32.334Z,101035.98
2023-01-22T01:51:32.252Z,101028.55
2023-01-22T01:55:21.307Z,101026.59
2023-01-22T01:58:58.278Z,101026.88
2023-01-22T02:06:31.911Z,101022.80
2023-01-22T02:10:08.264Z,101018.38
2023-01-22T02:13:44.302Z,101014.64
2023-01-22T02:20:54.304Z,101006.13
2023-01-22T02:24:35.308Z,101002.58
2023-01-22T02:28:29.321Z,101001.11
2023-01-22T02:32:01.288Z,100997.05
2023-01-22T02:35:43.319Z,100997.42
2023-01-22T02:39:22.708Z,100995.50
2023-01-22T02:42:55.350Z,100997.42
2023-01-22T02:46:38.443Z,100993.73
2023-01-22T02:57:02.269Z,100983.45
2023-01-22T03:00:34.461Z,100982.45
2023-01-22T03:04:07.330Z,100987.41
2023-01-22T03:07:45.388Z,100993.49
2023-01-22T03:11:18.344Z,101007.97
2023-01-22T03:14:55.157Z,101005.36
2023-01-22T03:18:32.389Z,101008.32
2023-01-22T03:22:09.466Z,101008.65
2023-01-22T03:25:39.421Z,101010.77
2023-01-22T03:29:11.372Z,101013.58
2023-01-22T03:32:51.493Z,101020.42
2023-01-22T03:36:33.415Z,101024.35
2023-01-22T03:40:32.328Z,101023.48
2023-01-22T03:44:06.442Z,101026.41
2023-01-22T03:47:47.465Z,101029.09
2023-01-22T03:51:20.413Z,101030.98
2023-01-22T03:54:55.364Z,101038.64
2023-01-22T03:58:33.381Z,101042.58
2023-01-22T04:02:11.451Z,101046.75
2023-01-22T04:06:06.308Z,101050.48
2023-01-22T04:09:49.376Z,101057.14
2023-01-22T04:13:49.781Z,101060.05
2023-01-22T04:17:26.808Z,101065.36
2023-01-22T04:21:19.546Z,101066.63
2023-01-22T04:25:08.433Z,101069.56
2023-01-22T04:28:55.429Z,101073.81
2023-01-22T04:32:51.472Z,101079.46
2023-01-22T04:36:45.410Z,101082.44
2023-01-22T04:40:27.458Z,101087.08
2023-01-22T04:51:56.423Z,101101.41
2023-01-22T04:59:52.489Z,101116.53
2023-01-22T05:03:32.483Z,101124.68
2023-01-22T05:07:07.458Z,101125.31
2023-01-22T05:10:47.480Z,101130.94
2023-01-22T05:14:35.608Z,101136.38
2023-01-22T05:18:14.533Z,101140.34
2023-01-22T05:26:04.515Z,101147.37
2023-01-22T05:30:19.665Z,101158.39
2023-01-22T05:41:37.452Z,101182.69
2023-01-22T05:45:15.511Z,101182.88
2023-01-22T05:48:56.478Z,101188.29
2023-01-22T05:56:15.266Z,101204.79
2023-01-22T06:03:56.548Z,101133.61
2023-01-22T06:07:58.520Z,101133.11
2023-01-22T06:11:41.125Z,101157.48
2023-01-22T06:15:21.515Z,101166.23
2023-01-22T06:18:57.484Z,101177.18
2023-01-22T06:23:03.762Z,101184.70
2023-01-22T06:27:11.088Z,101191.55
2023-01-22T06:34:55.919Z,101193.08
2023-01-22T06:38:41.469Z,101200.87
2023-01-22T06:42:37.898Z,101204.66
2023-01-22T06:46:35.587Z,101202.43
2023-01-22T06:50:54.105Z,101201.25
2023-01-22T15:41:03.598Z,101452.77
2023-01-22T16:19:10.902Z,101451.23
2023-01-22T16:38:15.934Z,101402.60
2023-01-22T16:42:22.452Z,101415.76
2023-01-22T16:50:04.894Z,101440.96
2023-01-22T16:53:50.013Z,101441.42
2023-01-22T16:58:10.828Z,101456.15
2023-01-22T17:02:09.646Z,101461.65
2023-01-22T17:06:06.886Z,101470.23
2023-01-22T17:09:54.912Z,101473.88
2023-01-22T17:21:01.587Z,101483.06
2023-01-22T17:24:29.246Z,101488.17
2023-01-22T17:28:12.895Z,101495.79
2023-01-22T17:31:53.022Z,101498.79
2023-01-22T17:39:53.907Z,101502.08
2023-01-22T17:43:46.160Z,101504.41
2023-01-22T17:47:22.998Z,101508.17
2023-01-22T17:54:48.952Z,101512.23
2023-01-22T17:58:38.022Z,101508.48
2023-01-22T18:02:12.502Z,101514.34
2023-01-22T18:05:57.175Z,101513.90
2023-01-22T18:09:58.023Z,101510.17
2023-01-22T18:13:38.021Z,101513.66
2023-01-22T18:17:32.969Z,101513.13
2023-01-22T18:21:16.000Z,101519.11
2023-01-22T18:24:53.024Z,101519.52
2023-01-22T18:32:18.655Z,101519.05
2023-01-22T18:36:25.829Z,101515.22
2023-01-22T18:40:07.492Z,101516.39
2023-01-22T18:43:44.928Z,101519.02
2023-01-22T18:47:34.801Z,101517.77
2023-01-22T18:51:15.644Z,101518.32
2023-01-22T18:54:57.813Z,101522.86
2023-01-22T18:58:46.081Z,101524.83
2023-01-22T19:02:43.065Z,101528.73
2023-01-22T19:06:17.789Z,101522.86
2023-01-22T19:17:35.356Z,101514.38
2023-01-22T19:21:18.785Z,101517.25
2023-01-22T19:24:57.974Z,101517.07
2023-01-22T19:28:53.999Z,101510.11
2023-01-22T19:32:29.027Z,101513.05
2023-01-22T19:39:37.481Z,101518.55
2023-01-22T19:43:15.204Z,101518.45
2023-01-22T22:59:23.645Z,101487.86
2023-01-22T23:03:45.705Z,101458.77
2023-01-22T23:14:35.766Z,101351.99
2023-01-22T23:18:10.758Z,101342.79
2023-01-22T23:22:15.549Z,101336.57
2023-01-22T23:25:55.751Z,101332.49
2023-01-22T23:33:52.288Z,101327.39
2023-01-22T23:37:47.530Z,101333.34
2023-01-22T23:41:40.566Z,101335.89
2023-01-22T23:55:37.619Z,101345.58
